Al-Kharj, Saudi Arabia

1:53 AM AST on July 24, 2016 (GMT +0300)
Prince Sultan Air Base | | Change Station

Elev 1640 ft 24.07 °N, 47.58 °E | Updated 53 minutes ago

Clear
Clear
104 °F
Feels Like 104 °F
N
6
Wind Variable Wind from NE

Today
High -- | Low -- °F
--% Chance of Precip.
Yesterday
High -- | Low -- °F
Precip. -- in
Pressure 29.62 in
Visibility 1.9 miles
Clouds Clear
Dew Point 45 °F
Humidity 13%
Rainfall 0.00 in
Snow Depth Not available.
5:16 AM 6:38 PM
Waning Gibbous, 82% visible
METAR OEKJ 232200Z 04005KT 3000 DU SKC 40/07 Q1003
Pressure 29.62 in
Visibility 1.9 miles
Clouds Clear
Dew Point 45 °F
Humidity 13%
Rainfall 0.00 in
Snow Depth Not available.
5:16 AM 6:38 PM
Waning Gibbous, 82% visible
METAR OEKJ 232200Z 04005KT 3000 DU SKC 40/07 Q1003

10-Day Weather Forecast

No radar image for this location.
×

Almanac

Astronomy

Jul. 24, 2016 Rise Set
Actual Time
Civil Twilight
Nautical Twilight
Astronomical Twilight
Moon
Length of Visible Light
Length of Day
Tomorrow will be .
, % of the Moon is Illuminated

Today's Extremes

Country Highs Country Lows

Community

WunderPhotos

Upload Photos

1,926,950 photos uploaded!

WunderBlog® & News

Nearby

Air Quality

  Air Quality AQ Index Pollutant
Not available.

Snow Depth

Station Depth Elevation

Earthquake Activity

City Distance Mag. Time & Date
Minimum magnitude displayed is 2.5.

Coastal Water Temperatures

Place Temperature

Stations

Nearby Weather Stations

Station Location Temp. Windchill Dew Point Humidity Wind Precip. Elev Updated Type